sensor_id;sensor_type;location;lat;lon;timestamp;temperature;humidity
20732;DHT22;10527;52.124;5.196;2022-12-20T00:01:43;8.70;99.90
20732;DHT22;10527;52.124;5.196;2022-12-20T00:04:11;8.70;99.90
20732;DHT22;10527;52.124;5.196;2022-12-20T00:06:38;8.70;99.90
20732;DHT22;10527;52.124;5.196;2022-12-20T00:09:07;8.70;99.90
20732;DHT22;10527;52.124;5.196;2022-12-20T00:11:41;8.80;99.90
20732;DHT22;10527;52.124;5.196;2022-12-20T00:14:09;8.80;99.90
20732;DHT22;10527;52.124;5.196;2022-12-20T00:16:36;8.80;99.90
20732;DHT22;10527;52.124;5.196;2022-12-20T00:19:05;8.80;99.90
20732;DHT22;10527;52.124;5.196;2022-12-20T00:21:34;8.80;99.90
20732;DHT22;10527;52.124;5.196;2022-12-20T00:24:02;8.80;99.90
20732;DHT22;10527;52.124;5.196;2022-12-20T00:26:32;8.90;99.90
20732;DHT22;10527;52.124;5.196;2022-12-20T00:29:00;8.90;99.90
20732;DHT22;10527;52.124;5.196;2022-12-20T00:31:30;8.90;99.90
20732;DHT22;10527;52.124;5.196;2022-12-20T00:33:58;8.90;99.90
20732;DHT22;10527;52.124;5.196;2022-12-20T00:36:28;8.90;99.90
20732;DHT22;10527;52.124;5.196;2022-12-20T00:38:58;8.80;99.90
20732;DHT22;10527;52.124;5.196;2022-12-20T00:41:30;8.90;99.90
20732;DHT22;10527;52.124;5.196;2022-12-20T00:43:59;9.00;99.90
20732;DHT22;10527;52.124;5.196;2022-12-20T00:46:26;9.10;99.90
20732;DHT22;10527;52.124;5.196;2022-12-20T00:48:54;9.00;99.90
20732;DHT22;10527;52.124;5.196;2022-12-20T00:51:26;9.10;99.90
20732;DHT22;10527;52.124;5.196;2022-12-20T00:53:55;9.20;99.90
20732;DHT22;10527;52.124;5.196;2022-12-20T00:56:22;9.20;99.90
20732;DHT22;10527;52.124;5.196;2022-12-20T00:58:51;9.20;99.90
20732;DHT22;10527;52.124;5.196;2022-12-20T01:01:21;9.30;99.90
20732;DHT22;10527;52.124;5.196;2022-12-20T01:03:51;9.30;99.90
20732;DHT22;10527;52.124;5.196;2022-12-20T01:06:19;9.30;99.90
20732;DHT22;10527;52.124;5.196;2022-12-20T01:08:47;9.30;99.90
20732;DHT22;10527;52.124;5.196;2022-12-20T01:11:17;9.30;99.90
20732;DHT22;10527;52.124;5.196;2022-12-20T01:13:51;9.40;99.90
20732;DHT22;10527;52.124;5.196;2022-12-20T01:16:23;9.40;99.90
20732;DHT22;10527;52.124;5.196;2022-12-20T01:18:53;9.40;99.90
20732;DHT22;10527;52.124;5.196;2022-12-20T01:21:24;9.40;99.90
20732;DHT22;10527;52.124;5.196;2022-12-20T01:23:53;9.40;99.90
20732;DHT22;10527;52.124;5.196;2022-12-20T01:26:23;9.50;99.90
20732;DHT22;10527;52.124;5.196;2022-12-20T01:28:56;9.40;99.90
20732;DHT22;10527;52.124;5.196;2022-12-20T01:31:26;9.40;99.90
20732;DHT22;10527;52.124;5.196;2022-12-20T01:33:57;9.40;99.90
20732;DHT22;10527;52.124;5.196;2022-12-20T01:36:27;9.40;99.90
20732;DHT22;10527;52.124;5.196;2022-12-20T01:39:02;9.40;99.90
20732;DHT22;10527;52.124;5.196;2022-12-20T01:41:35;9.30;99.90
20732;DHT22;10527;52.124;5.196;2022-12-20T01:46:50;9.40;99.90
20732;DHT22;10527;52.124;5.196;2022-12-20T01:49:28;9.30;99.90
20732;DHT22;10527;52.124;5.196;2022-12-20T01:52:03;9.30;99.90
20732;DHT22;10527;52.124;5.196;2022-12-20T01:55:00;9.30;99.90
20732;DHT22;10527;52.124;5.196;2022-12-20T01:57:38;9.30;99.90
20732;DHT22;10527;52.124;5.196;2022-12-20T02:00:14;9.20;99.90
20732;DHT22;10527;52.124;5.196;2022-12-20T02:02:44;9.20;99.90
20732;DHT22;10527;52.124;5.196;2022-12-20T02:05:15;9.20;99.90
20732;DHT22;10527;52.124;5.196;2022-12-20T02:07:48;9.30;99.90
20732;DHT22;10527;52.124;5.196;2022-12-20T02:10:20;9.20;99.90
20732;DHT22;10527;52.124;5.196;2022-12-20T02:12:55;9.20;99.90
20732;DHT22;10527;52.124;5.196;2022-12-20T02:15:55;9.20;99.90
20732;DHT22;10527;52.124;5.196;2022-12-20T02:18:30;9.10;99.90
20732;DHT22;10527;52.124;5.196;2022-12-20T02:21:29;9.10;99.90
20732;DHT22;10527;52.124;5.196;2022-12-20T02:24:31;9.20;99.90
20732;DHT22;10527;52.124;5.196;2022-12-20T02:30:21;9.20;99.90
20732;DHT22;10527;52.124;5.196;2022-12-20T02:33:04;9.20;99.90
20732;DHT22;10527;52.124;5.196;2022-12-20T02:35:37;9.30;99.90
20732;DHT22;10527;52.124;5.196;2022-12-20T02:38:26;9.20;99.90
20732;DHT22;10527;52.124;5.196;2022-12-20T02:41:05;9.20;99.90
20732;DHT22;10527;52.124;5.196;2022-12-20T02:43:38;9.30;99.90
20732;DHT22;10527;52.124;5.196;2022-12-20T02:46:28;9.30;99.90
20732;DHT22;10527;52.124;5.196;2022-12-20T02:49:01;9.20;99.90
20732;DHT22;10527;52.124;5.196;2022-12-20T02:51:33;9.20;99.90
20732;DHT22;10527;52.124;5.196;2022-12-20T02:54:00;9.30;99.90
20732;DHT22;10527;52.124;5.196;2022-12-20T02:56:54;9.30;99.90
20732;DHT22;10527;52.124;5.196;2022-12-20T02:59:33;9.20;99.90
20732;DHT22;10527;52.124;5.196;2022-12-20T03:02:08;9.20;99.90
20732;DHT22;10527;52.124;5.196;2022-12-20T03:04:38;9.30;99.90
20732;DHT22;10527;52.124;5.196;2022-12-20T03:07:10;9.20;99.90
20732;DHT22;10527;52.124;5.196;2022-12-20T03:09:41;9.20;99.90
20732;DHT22;10527;52.124;5.196;2022-12-20T03:12:10;9.20;99.90
20732;DHT22;10527;52.124;5.196;2022-12-20T03:14:39;9.20;99.90
20732;DHT22;10527;52.124;5.196;2022-12-20T03:17:07;9.20;99.90
20732;DHT22;10527;52.124;5.196;2022-12-20T03:19:35;9.20;99.90
20732;DHT22;10527;52.124;5.196;2022-12-20T03:22:02;9.20;99.90
20732;DHT22;10527;52.124;5.196;2022-12-20T03:24:29;9.20;99.90
20732;DHT22;10527;52.124;5.196;2022-12-20T03:26:58;9.20;99.90
20732;DHT22;10527;52.124;5.196;2022-12-20T03:29:25;9.20;99.90
20732;DHT22;10527;52.124;5.196;2022-12-20T03:31:52;9.20;99.90
20732;DHT22;10527;52.124;5.196;2022-12-20T03:34:19;9.20;99.90
20732;DHT22;10527;52.124;5.196;2022-12-20T03:36:46;9.20;99.90
20732;DHT22;10527;52.124;5.196;2022-12-20T03:39:13;9.30;99.90
20732;DHT22;10527;52.124;5.196;2022-12-20T03:41:39;9.30;99.90
20732;DHT22;10527;52.124;5.196;2022-12-20T03:44:06;9.30;99.90
20732;DHT22;10527;52.124;5.196;2022-12-20T03:46:33;9.20;99.90
20732;DHT22;10527;52.124;5.196;2022-12-20T03:49:00;9.30;99.90
20732;DHT22;10527;52.124;5.196;2022-12-20T03:51:27;9.30;99.90
20732;DHT22;10527;52.124;5.196;2022-12-20T03:53:54;9.30;99.90
20732;DHT22;10527;52.124;5.196;2022-12-20T03:56:21;9.30;99.90
20732;DHT22;10527;52.124;5.196;2022-12-20T03:58:48;9.30;99.90
20732;DHT22;10527;52.124;5.196;2022-12-20T04:01:24;9.40;99.90
20732;DHT22;10527;52.124;5.196;2022-12-20T04:03:52;9.30;99.90
20732;DHT22;10527;52.124;5.196;2022-12-20T04:06:20;9.40;99.90
20732;DHT22;10527;52.124;5.196;2022-12-20T04:08:50;9.50;99.90
20732;DHT22;10527;52.124;5.196;2022-12-20T04:11:17;9.40;99.90
20732;DHT22;10527;52.124;5.196;2022-12-20T04:13:49;9.40;99.90
20732;DHT22;10527;52.124;5.196;2022-12-20T04:16:20;9.50;99.90
20732;DHT22;10527;52.124;5.196;2022-12-20T04:18:49;9.60;99.90
20732;DHT22;10527;52.124;5.196;2022-12-20T04:21:21;9.50;99.90
20732;DHT22;10527;52.124;5.196;2022-12-20T04:23:49;9.50;99.90
20732;DHT22;10527;52.124;5.196;2022-12-20T04:26:16;9.60;99.90
20732;DHT22;10527;52.124;5.196;2022-12-20T04:28:43;9.70;99.90
20732;DHT22;10527;52.124;5.196;2022-12-20T04:31:10;9.70;99.90
20732;DHT22;10527;52.124;5.196;2022-12-20T04:33:40;9.70;99.90
20732;DHT22;10527;52.124;5.196;2022-12-20T04:36:07;9.70;99.90
20732;DHT22;10527;52.124;5.196;2022-12-20T04:38:35;9.70;99.90
20732;DHT22;10527;52.124;5.196;2022-12-20T04:41:02;9.70;99.90
20732;DHT22;10527;52.124;5.196;2022-12-20T04:43:29;9.80;99.90
20732;DHT22;10527;52.124;5.196;2022-12-20T04:45:56;9.70;99.90
20732;DHT22;10527;52.124;5.196;2022-12-20T04:48:24;9.80;99.90
20732;DHT22;10527;52.124;5.196;2022-12-20T04:51:13;9.90;99.90
20732;DHT22;10527;52.124;5.196;2022-12-20T04:53:40;9.80;99.90
20732;DHT22;10527;52.124;5.196;2022-12-20T04:56:25;9.90;99.90
20732;DHT22;10527;52.124;5.196;2022-12-20T04:58:55;9.90;99.90
20732;DHT22;10527;52.124;5.196;2022-12-20T05:01:23;10.00;99.90
20732;DHT22;10527;52.124;5.196;2022-12-20T05:03:51;9.90;99.90
20732;DHT22;10527;52.124;5.196;2022-12-20T05:06:19;10.00;99.90
20732;DHT22;10527;52.124;5.196;2022-12-20T05:08:46;10.00;99.90
20732;DHT22;10527;52.124;5.196;2022-12-20T05:11:16;9.90;99.90
20732;DHT22;10527;52.124;5.196;2022-12-20T05:13:43;9.90;99.90
20732;DHT22;10527;52.124;5.196;2022-12-20T05:16:09;10.00;99.90
20732;DHT22;10527;52.124;5.196;2022-12-20T05:18:36;9.90;99.90
20732;DHT22;10527;52.124;5.196;2022-12-20T05:21:12;9.90;99.90
20732;DHT22;10527;52.124;5.196;2022-12-20T05:24:05;9.90;99.90
20732;DHT22;10527;52.124;5.196;2022-12-20T05:26:51;9.90;99.90
20732;DHT22;10527;52.124;5.196;2022-12-20T05:29:18;9.90;99.90
20732;DHT22;10527;52.124;5.196;2022-12-20T05:31:44;9.90;99.90
20732;DHT22;10527;52.124;5.196;2022-12-20T05:34:12;9.90;99.90
20732;DHT22;10527;52.124;5.196;2022-12-20T05:36:38;9.80;99.90
20732;DHT22;10527;52.124;5.196;2022-12-20T05:39:05;9.90;99.90
20732;DHT22;10527;52.124;5.196;2022-12-20T05:41:32;9.90;99.90
20732;DHT22;10527;52.124;5.196;2022-12-20T05:43:59;9.80;99.90
20732;DHT22;10527;52.124;5.196;2022-12-20T05:46:26;9.80;99.90
20732;DHT22;10527;52.124;5.196;2022-12-20T05:48:53;9.80;99.90
20732;DHT22;10527;52.124;5.196;2022-12-20T05:51:20;9.90;99.90
20732;DHT22;10527;52.124;5.196;2022-12-20T05:53:47;9.90;99.90
20732;DHT22;10527;52.124;5.196;2022-12-20T05:56:14;9.90;99.90
20732;DHT22;10527;52.124;5.196;2022-12-20T05:58:40;9.90;99.90
20732;DHT22;10527;52.124;5.196;2022-12-20T06:01:08;9.90;99.90
20732;DHT22;10527;52.124;5.196;2022-12-20T06:03:37;9.90;99.90
20732;DHT22;10527;52.124;5.196;2022-12-20T06:06:06;9.90;99.90
20732;DHT22;10527;52.124;5.196;2022-12-20T06:08:43;9.90;99.90
20732;DHT22;10527;52.124;5.196;2022-12-20T06:11:10;10.00;99.90
20732;DHT22;10527;52.124;5.196;2022-12-20T06:13:37;10.00;99.90
20732;DHT22;10527;52.124;5.196;2022-12-20T06:16:03;10.00;99.90
20732;DHT22;10527;52.124;5.196;2022-12-20T06:18:30;10.00;99.90
20732;DHT22;10527;52.124;5.196;2022-12-20T06:20:57;10.10;99.90
20732;DHT22;10527;52.124;5.196;2022-12-20T06:23:24;10.00;99.90
20732;DHT22;10527;52.124;5.196;2022-12-20T06:25:54;10.10;99.90
20732;DHT22;10527;52.124;5.196;2022-12-20T06:28:21;10.00;99.90
20732;DHT22;10527;52.124;5.196;2022-12-20T06:31:11;10.10;99.90
20732;DHT22;10527;52.124;5.196;2022-12-20T06:33:38;10.20;99.90
20732;DHT22;10527;52.124;5.196;2022-12-20T06:36:05;10.00;99.90
20732;DHT22;10527;52.124;5.196;2022-12-20T06:38:32;10.10;99.90
20732;DHT22;10527;52.124;5.196;2022-12-20T06:40:59;10.10;99.90
20732;DHT22;10527;52.124;5.196;2022-12-20T06:43:26;10.10;99.90
20732;DHT22;10527;52.124;5.196;2022-12-20T06:45:54;10.10;99.90
20732;DHT22;10527;52.124;5.196;2022-12-20T06:48:21;10.10;99.90
20732;DHT22;10527;52.124;5.196;2022-12-20T06:50:48;10.20;99.90
20732;DHT22;10527;52.124;5.196;2022-12-20T06:53:21;10.10;99.90
20732;DHT22;10527;52.124;5.196;2022-12-20T06:55:51;10.00;99.90
20732;DHT22;10527;52.124;5.196;2022-12-20T06:58:18;10.00;99.90
20732;DHT22;10527;52.124;5.196;2022-12-20T07:00:46;10.00;99.90
20732;DHT22;10527;52.124;5.196;2022-12-20T07:03:13;10.10;99.90
20732;DHT22;10527;52.124;5.196;2022-12-20T07:05:40;10.10;99.90
20732;DHT22;10527;52.124;5.196;2022-12-20T07:08:08;10.10;99.90
20732;DHT22;10527;52.124;5.196;2022-12-20T07:10:36;10.00;99.90
20732;DHT22;10527;52.124;5.196;2022-12-20T07:13:03;10.10;99.90
20732;DHT22;10527;52.124;5.196;2022-12-20T07:15:30;10.10;99.90
20732;DHT22;10527;52.124;5.196;2022-12-20T07:17:58;10.10;99.90
20732;DHT22;10527;52.124;5.196;2022-12-20T07:20:25;10.20;99.90
20732;DHT22;10527;52.124;5.196;2022-12-20T07:22:52;10.20;99.90
20732;DHT22;10527;52.124;5.196;2022-12-20T07:25:20;10.10;99.90
20732;DHT22;10527;52.124;5.196;2022-12-20T07:27:48;10.10;99.90
20732;DHT22;10527;52.124;5.196;2022-12-20T07:30:19;10.10;99.90
20732;DHT22;10527;52.124;5.196;2022-12-20T07:32:47;10.20;99.90
20732;DHT22;10527;52.124;5.196;2022-12-20T07:35:14;10.20;99.90
20732;DHT22;10527;52.124;5.196;2022-12-20T07:37:42;10.30;99.90
20732;DHT22;10527;52.124;5.196;2022-12-20T07:40:10;10.20;99.90
20732;DHT22;10527;52.124;5.196;2022-12-20T07:42:38;10.20;99.90
20732;DHT22;10527;52.124;5.196;2022-12-20T07:45:13;10.20;99.90
20732;DHT22;10527;52.124;5.196;2022-12-20T07:47:42;10.20;99.90
20732;DHT22;10527;52.124;5.196;2022-12-20T07:50:09;10.20;99.90
20732;DHT22;10527;52.124;5.196;2022-12-20T07:52:39;10.20;99.90
20732;DHT22;10527;52.124;5.196;2022-12-20T07:55:10;10.20;99.90
20732;DHT22;10527;52.124;5.196;2022-12-20T07:57:44;10.20;99.90
20732;DHT22;10527;52.124;5.196;2022-12-20T08:00:18;10.20;99.90
20732;DHT22;10527;52.124;5.196;2022-12-20T08:02:51;10.20;99.90
20732;DHT22;10527;52.124;5.196;2022-12-20T08:05:19;10.10;99.90
20732;DHT22;10527;52.124;5.196;2022-12-20T08:07:47;10.00;99.90
20732;DHT22;10527;52.124;5.196;2022-12-20T08:10:24;10.10;99.90
20732;DHT22;10527;52.124;5.196;2022-12-20T08:12:53;10.10;99.90
20732;DHT22;10527;52.124;5.196;2022-12-20T08:15:21;10.10;99.90
20732;DHT22;10527;52.124;5.196;2022-12-20T08:17:49;10.10;99.90
20732;DHT22;10527;52.124;5.196;2022-12-20T08:20:16;10.20;99.90
20732;DHT22;10527;52.124;5.196;2022-12-20T08:22:43;10.10;99.90
20732;DHT22;10527;52.124;5.196;2022-12-20T08:25:10;10.10;99.90
20732;DHT22;10527;52.124;5.196;2022-12-20T08:27:37;10.10;99.90
20732;DHT22;10527;52.124;5.196;2022-12-20T08:30:05;10.00;99.90
20732;DHT22;10527;52.124;5.196;2022-12-20T08:32:34;10.10;99.90
20732;DHT22;10527;52.124;5.196;2022-12-20T08:35:02;10.00;99.90
20732;DHT22;10527;52.124;5.196;2022-12-20T08:37:31;10.10;99.90
20732;DHT22;10527;52.124;5.196;2022-12-20T08:39:58;10.10;99.90
20732;DHT22;10527;52.124;5.196;2022-12-20T08:42:26;10.10;99.90
20732;DHT22;10527;52.124;5.196;2022-12-20T08:44:54;10.00;99.90
20732;DHT22;10527;52.124;5.196;2022-12-20T08:47:21;10.00;99.90
20732;DHT22;10527;52.124;5.196;2022-12-20T08:49:50;10.10;99.90
20732;DHT22;10527;52.124;5.196;2022-12-20T08:52:17;10.20;99.90
20732;DHT22;10527;52.124;5.196;2022-12-20T08:54:44;10.00;99.90
20732;DHT22;10527;52.124;5.196;2022-12-20T08:57:12;10.10;99.90
20732;DHT22;10527;52.124;5.196;2022-12-20T08:59:39;10.10;99.90
20732;DHT22;10527;52.124;5.196;2022-12-20T09:02:06;10.10;99.90
20732;DHT22;10527;52.124;5.196;2022-12-20T09:04:33;10.00;99.90
20732;DHT22;10527;52.124;5.196;2022-12-20T09:07:00;10.00;99.90
20732;DHT22;10527;52.124;5.196;2022-12-20T09:09:27;10.00;99.90
20732;DHT22;10527;52.124;5.196;2022-12-20T09:11:54;10.00;99.90
20732;DHT22;10527;52.124;5.196;2022-12-20T09:14:21;10.00;99.90
20732;DHT22;10527;52.124;5.196;2022-12-20T09:16:48;10.00;99.90
20732;DHT22;10527;52.124;5.196;2022-12-20T09:19:15;10.00;99.90
20732;DHT22;10527;52.124;5.196;2022-12-20T09:21:42;10.00;99.90
20732;DHT22;10527;52.124;5.196;2022-12-20T09:24:09;10.00;99.90
20732;DHT22;10527;52.124;5.196;2022-12-20T09:26:36;10.00;99.90
20732;DHT22;10527;52.124;5.196;2022-12-20T09:29:03;10.00;99.90
20732;DHT22;10527;52.124;5.196;2022-12-20T09:31:31;10.00;99.90
20732;DHT22;10527;52.124;5.196;2022-12-20T09:33:59;10.00;99.90
20732;DHT22;10527;52.124;5.196;2022-12-20T09:36:28;10.00;99.90
20732;DHT22;10527;52.124;5.196;2022-12-20T09:38:57;9.90;99.90
20732;DHT22;10527;52.124;5.196;2022-12-20T09:41:32;10.00;99.90
20732;DHT22;10527;52.124;5.196;2022-12-20T09:46:58;10.00;99.90
20732;DHT22;10527;52.124;5.196;2022-12-20T09:49:40;10.00;99.90
20732;DHT22;10527;52.124;5.196;2022-12-20T09:52:35;10.00;99.90
20732;DHT22;10527;52.124;5.196;2022-12-20T09:55:57;10.00;99.90
20732;DHT22;10527;52.124;5.196;2022-12-20T10:01:52;10.00;99.90
20732;DHT22;10527;52.124;5.196;2022-12-20T10:04:27;9.90;99.90
20732;DHT22;10527;52.124;5.196;2022-12-20T10:15:59;10.00;99.90
20732;DHT22;10527;52.124;5.196;2022-12-20T10:19:13;10.00;99.90
20732;DHT22;10527;52.124;5.196;2022-12-20T10:24:30;10.00;99.90
20732;DHT22;10527;52.124;5.196;2022-12-20T10:27:19;10.00;99.90
20732;DHT22;10527;52.124;5.196;2022-12-20T10:29:49;10.10;99.90
20732;DHT22;10527;52.124;5.196;2022-12-20T10:32:20;10.00;99.90
20732;DHT22;10527;52.124;5.196;2022-12-20T10:37:37;10.10;99.90
20732;DHT22;10527;52.124;5.196;2022-12-20T10:40:31;10.10;99.90
20732;DHT22;10527;52.124;5.196;2022-12-20T10:43:23;10.10;99.90
20732;DHT22;10527;52.124;5.196;2022-12-20T10:46:00;10.10;99.90
20732;DHT22;10527;52.124;5.196;2022-12-20T10:48:34;10.10;99.90
20732;DHT22;10527;52.124;5.196;2022-12-20T10:54:02;10.10;99.90
20732;DHT22;10527;52.124;5.196;2022-12-20T10:56:57;10.10;99.90
20732;DHT22;10527;52.124;5.196;2022-12-20T10:59:32;10.10;99.90
20732;DHT22;10527;52.124;5.196;2022-12-20T11:07:55;10.20;99.90
20732;DHT22;10527;52.124;5.196;2022-12-20T11:10:44;10.20;99.90
20732;DHT22;10527;52.124;5.196;2022-12-20T11:13:23;10.20;99.90
20732;DHT22;10527;52.124;5.196;2022-12-20T11:15:54;10.20;99.90
20732;DHT22;10527;52.124;5.196;2022-12-20T11:21:37;10.20;99.90
20732;DHT22;10527;52.124;5.196;2022-12-20T11:36:40;10.20;99.90
20732;DHT22;10527;52.124;5.196;2022-12-20T11:42:49;10.20;99.90
20732;DHT22;10527;52.124;5.196;2022-12-20T11:51:23;10.20;99.90
20732;DHT22;10527;52.124;5.196;2022-12-20T11:56:41;10.20;99.90
20732;DHT22;10527;52.124;5.196;2022-12-20T11:59:22;10.30;99.90
20732;DHT22;10527;52.124;5.196;2022-12-20T12:02:15;10.30;99.90
20732;DHT22;10527;52.124;5.196;2022-12-20T12:05:06;10.30;99.90
20732;DHT22;10527;52.124;5.196;2022-12-20T12:07:53;10.30;99.90
20732;DHT22;10527;52.124;5.196;2022-12-20T12:10:39;10.30;99.90
20732;DHT22;10527;52.124;5.196;2022-12-20T12:13:27;10.30;99.90
20732;DHT22;10527;52.124;5.196;2022-12-20T12:16:25;10.30;99.90
20732;DHT22;10527;52.124;5.196;2022-12-20T12:18:59;10.40;99.90
20732;DHT22;10527;52.124;5.196;2022-12-20T12:21:37;10.40;99.90
20732;DHT22;10527;52.124;5.196;2022-12-20T12:24:22;10.30;99.90
20732;DHT22;10527;52.124;5.196;2022-12-20T12:27:01;10.40;99.90
20732;DHT22;10527;52.124;5.196;2022-12-20T12:29:29;10.40;99.90
20732;DHT22;10527;52.124;5.196;2022-12-20T12:32:03;10.40;99.90
20732;DHT22;10527;52.124;5.196;2022-12-20T12:37:53;10.40;99.90
20732;DHT22;10527;52.124;5.196;2022-12-20T12:46:13;10.40;99.90
20732;DHT22;10527;52.124;5.196;2022-12-20T12:49:09;10.40;99.90
20732;DHT22;10527;52.124;5.196;2022-12-20T12:51:50;10.40;99.90
20732;DHT22;10527;52.124;5.196;2022-12-20T12:54:39;10.40;99.90
20732;DHT22;10527;52.124;5.196;2022-12-20T12:57:13;10.50;99.90
20732;DHT22;10527;52.124;5.196;2022-12-20T12:59:48;10.50;99.90
20732;DHT22;10527;52.124;5.196;2022-12-20T13:04:59;10.40;99.90
20732;DHT22;10527;52.124;5.196;2022-12-20T13:20:23;10.40;99.90
20732;DHT22;10527;52.124;5.196;2022-12-20T13:25:43;10.50;99.90
20732;DHT22;10527;52.124;5.196;2022-12-20T13:30:46;10.50;99.90
20732;DHT22;10527;52.124;5.196;2022-12-20T13:33:49;10.40;99.90
20732;DHT22;10527;52.124;5.196;2022-12-20T13:36:36;10.50;99.90
20732;DHT22;10527;52.124;5.196;2022-12-20T13:39:36;10.50;99.90
20732;DHT22;10527;52.124;5.196;2022-12-20T13:42:32;10.50;99.90
20732;DHT22;10527;52.124;5.196;2022-12-20T13:45:04;10.50;99.90
20732;DHT22;10527;52.124;5.196;2022-12-20T13:47:43;10.50;99.90
20732;DHT22;10527;52.124;5.196;2022-12-20T13:50:23;10.50;99.90
20732;DHT22;10527;52.124;5.196;2022-12-20T13:52:51;10.50;99.90
20732;DHT22;10527;52.124;5.196;2022-12-20T14:01:06;10.50;99.90
20732;DHT22;10527;52.124;5.196;2022-12-20T14:03:45;10.60;99.90
20732;DHT22;10527;52.124;5.196;2022-12-20T14:06:14;10.60;99.90
20732;DHT22;10527;52.124;5.196;2022-12-20T14:08:52;10.60;99.90
20732;DHT22;10527;52.124;5.196;2022-12-20T14:11:22;10.60;99.90
20732;DHT22;10527;52.124;5.196;2022-12-20T14:16:25;10.60;99.90
20732;DHT22;10527;52.124;5.196;2022-12-20T14:21:24;10.50;99.90
20732;DHT22;10527;52.124;5.196;2022-12-20T14:23:54;10.60;99.90
20732;DHT22;10527;52.124;5.196;2022-12-20T14:26:41;10.60;99.90
20732;DHT22;10527;52.124;5.196;2022-12-20T14:29:15;10.60;99.90
20732;DHT22;10527;52.124;5.196;2022-12-20T14:31:49;10.50;99.90
20732;DHT22;10527;52.124;5.196;2022-12-20T14:34:22;10.50;99.90
20732;DHT22;10527;52.124;5.196;2022-12-20T14:42:39;10.60;99.90
20732;DHT22;10527;52.124;5.196;2022-12-20T14:47:59;10.50;99.90
20732;DHT22;10527;52.124;5.196;2022-12-20T14:50:32;10.50;99.90
20732;DHT22;10527;52.124;5.196;2022-12-20T14:53:01;10.50;99.90
20732;DHT22;10527;52.124;5.196;2022-12-20T14:55:38;10.60;99.90
20732;DHT22;10527;52.124;5.196;2022-12-20T15:01:23;10.50;99.90
20732;DHT22;10527;52.124;5.196;2022-12-20T15:03:55;10.50;99.90
20732;DHT22;10527;52.124;5.196;2022-12-20T15:06:50;10.50;99.90
20732;DHT22;10527;52.124;5.196;2022-12-20T15:09:19;10.50;99.90
20732;DHT22;10527;52.124;5.196;2022-12-20T15:11:48;10.40;99.90
20732;DHT22;10527;52.124;5.196;2022-12-20T15:14:30;10.40;99.90
20732;DHT22;10527;52.124;5.196;2022-12-20T15:17:10;10.40;99.90
20732;DHT22;10527;52.124;5.196;2022-12-20T15:19:40;10.50;99.90
20732;DHT22;10527;52.124;5.196;2022-12-20T15:22:14;10.50;99.90
20732;DHT22;10527;52.124;5.196;2022-12-20T15:24:44;10.40;99.90
20732;DHT22;10527;52.124;5.196;2022-12-20T15:27:13;10.40;99.90
20732;DHT22;10527;52.124;5.196;2022-12-20T15:29:41;10.40;99.90
20732;DHT22;10527;52.124;5.196;2022-12-20T15:32:23;10.40;99.90
20732;DHT22;10527;52.124;5.196;2022-12-20T15:34:55;10.40;99.90
20732;DHT22;10527;52.124;5.196;2022-12-20T15:37:22;10.40;99.90
20732;DHT22;10527;52.124;5.196;2022-12-20T15:39:51;10.40;99.90
20732;DHT22;10527;52.124;5.196;2022-12-20T15:42:19;10.40;99.90
20732;DHT22;10527;52.124;5.196;2022-12-20T15:44:48;10.40;99.90
20732;DHT22;10527;52.124;5.196;2022-12-20T15:47:16;10.30;99.90
20732;DHT22;10527;52.124;5.196;2022-12-20T15:49:45;10.40;99.90
20732;DHT22;10527;52.124;5.196;2022-12-20T15:52:21;10.30;99.90
20732;DHT22;10527;52.124;5.196;2022-12-20T15:54:49;10.40;99.90
20732;DHT22;10527;52.124;5.196;2022-12-20T15:57:16;10.30;99.90
20732;DHT22;10527;52.124;5.196;2022-12-20T15:59:45;10.30;99.90
20732;DHT22;10527;52.124;5.196;2022-12-20T16:02:31;10.30;99.90
20732;DHT22;10527;52.124;5.196;2022-12-20T16:04:59;10.40;99.90
20732;DHT22;10527;52.124;5.196;2022-12-20T16:07:27;10.30;99.90
20732;DHT22;10527;52.124;5.196;2022-12-20T16:09:54;10.30;99.90
20732;DHT22;10527;52.124;5.196;2022-12-20T16:12:32;10.30;99.90
20732;DHT22;10527;52.124;5.196;2022-12-20T16:15:01;10.30;99.90
20732;DHT22;10527;52.124;5.196;2022-12-20T16:17:28;10.30;99.90
20732;DHT22;10527;52.124;5.196;2022-12-20T16:19:55;10.30;99.90
20732;DHT22;10527;52.124;5.196;2022-12-20T16:22:23;10.30;99.90
20732;DHT22;10527;52.124;5.196;2022-12-20T16:24:52;10.30;99.90
20732;DHT22;10527;52.124;5.196;2022-12-20T16:27:19;10.30;99.90
20732;DHT22;10527;52.124;5.196;2022-12-20T16:29:47;10.30;99.90
20732;DHT22;10527;52.124;5.196;2022-12-20T16:32:15;10.30;99.90
20732;DHT22;10527;52.124;5.196;2022-12-20T16:34:44;10.30;99.90
20732;DHT22;10527;52.124;5.196;2022-12-20T16:37:12;10.30;99.90
20732;DHT22;10527;52.124;5.196;2022-12-20T16:39:40;10.30;99.90
20732;DHT22;10527;52.124;5.196;2022-12-20T16:42:16;10.30;99.90
20732;DHT22;10527;52.124;5.196;2022-12-20T16:44:52;10.30;99.90
20732;DHT22;10527;52.124;5.196;2022-12-20T16:47:20;10.30;99.90
20732;DHT22;10527;52.124;5.196;2022-12-20T16:49:47;10.30;99.90
20732;DHT22;10527;52.124;5.196;2022-12-20T16:52:20;10.30;99.90
20732;DHT22;10527;52.124;5.196;2022-12-20T16:54:48;10.30;99.90
20732;DHT22;10527;52.124;5.196;2022-12-20T16:57:16;10.30;99.90
20732;DHT22;10527;52.124;5.196;2022-12-20T16:59:43;10.30;99.90
20732;DHT22;10527;52.124;5.196;2022-12-20T17:02:39;10.20;99.90
20732;DHT22;10527;52.124;5.196;2022-12-20T17:05:17;10.20;99.90
20732;DHT22;10527;52.124;5.196;2022-12-20T17:07:47;10.20;99.90
20732;DHT22;10527;52.124;5.196;2022-12-20T17:10:14;10.20;99.90
20732;DHT22;10527;52.124;5.196;2022-12-20T17:12:43;10.30;99.90
20732;DHT22;10527;52.124;5.196;2022-12-20T17:15:23;10.30;99.90
20732;DHT22;10527;52.124;5.196;2022-12-20T17:17:52;10.30;99.90
20732;DHT22;10527;52.124;5.196;2022-12-20T17:20:21;10.30;99.90
20732;DHT22;10527;52.124;5.196;2022-12-20T17:22:52;10.30;99.90
20732;DHT22;10527;52.124;5.196;2022-12-20T17:25:26;10.30;99.90
20732;DHT22;10527;52.124;5.196;2022-12-20T17:27:58;10.30;99.90
20732;DHT22;10527;52.124;5.196;2022-12-20T17:30:25;10.30;99.90
20732;DHT22;10527;52.124;5.196;2022-12-20T17:32:52;10.20;99.90
20732;DHT22;10527;52.124;5.196;2022-12-20T17:35:23;10.20;99.90
20732;DHT22;10527;52.124;5.196;2022-12-20T17:37:56;10.30;99.90
20732;DHT22;10527;52.124;5.196;2022-12-20T17:40:27;10.20;99.90
20732;DHT22;10527;52.124;5.196;2022-12-20T17:42:54;10.30;99.90
20732;DHT22;10527;52.124;5.196;2022-12-20T17:45:28;10.30;99.90
20732;DHT22;10527;52.124;5.196;2022-12-20T17:48:01;10.20;99.90
20732;DHT22;10527;52.124;5.196;2022-12-20T17:50:28;10.20;99.90
20732;DHT22;10527;52.124;5.196;2022-12-20T17:52:55;10.30;99.90
20732;DHT22;10527;52.124;5.196;2022-12-20T17:55:25;10.30;99.90
20732;DHT22;10527;52.124;5.196;2022-12-20T17:57:54;10.30;99.90
20732;DHT22;10527;52.124;5.196;2022-12-20T18:00:28;10.20;99.90
20732;DHT22;10527;52.124;5.196;2022-12-20T18:03:08;10.20;99.90
20732;DHT22;10527;52.124;5.196;2022-12-20T18:05:55;10.30;99.90